Time;durP1;ratioP1;P1;durP2;ratioP2;P2;SDS_P1;SDS_P2;PMS_P1;PMS_P2;Temp;Humidity;BMP_temperature;BMP_pressure;BME280_temperature;BME280_humidity;BME280_pressure;Samples;Min_cycle;Max_cycle;Signal;HPM_P1;HPM_P2
2021/03/31 00:02:09;;;;;;;8.32;5.07;;;13.60;54.70;;;;;;5109103;28;20505;-48
2021/03/31 00:04:35;;;;;;;12.20;5.97;;;13.70;54.60;;;;;;5110598;28;20030;-48
2021/03/31 00:07:03;;;;;;;10.80;5.00;;;13.70;54.40;;;;;;5111111;28;20044;-52
2021/03/31 00:09:29;;;;;;;9.40;4.65;;;13.60;54.90;;;;;;5110901;28;20027;-53
2021/03/31 00:11:54;;;;;;;8.63;4.32;;;13.40;57.10;;;;;;5110722;28;20447;-52
2021/03/31 00:14:20;;;;;;;14.77;5.47;;;13.30;58.30;;;;;;5110112;28;20019;-51
2021/03/31 00:16:45;;;;;;;13.30;4.88;;;13.10;57.30;;;;;;5110833;28;20027;-48
2021/03/31 00:19:11;;;;;;;12.90;5.18;;;13.00;58.20;;;;;;5092558;28;20024;-51
2021/03/31 00:21:36;;;;;;;9.25;4.40;;;12.90;58.80;;;;;;5110668;28;20042;-49
2021/03/31 00:24:02;;;;;;;10.68;4.32;;;12.80;61.50;;;;;;5091920;28;20127;-51
2021/03/31 00:26:28;;;;;;;9.57;3.97;;;12.60;64.10;;;;;;5110497;28;20024;-54
2021/03/31 00:28:53;;;;;;;7.90;4.53;;;12.50;63.00;;;;;;5110626;28;20055;-49
2021/03/31 00:31:19;;;;;;;7.85;4.45;;;12.40;64.00;;;;;;5092315;28;20024;-50
2021/03/31 00:33:45;;;;;;;11.30;4.95;;;12.30;65.60;;;;;;5110002;28;20028;-50
2021/03/31 00:36:10;;;;;;;11.32;5.10;;;12.30;64.80;;;;;;5110626;28;20043;-54
2021/03/31 00:38:36;;;;;;;8.18;4.35;;;12.20;64.20;;;;;;5110536;28;20117;-50
2021/03/31 00:41:04;;;;;;;8.43;4.10;;;12.10;64.50;;;;;;5110338;28;20020;-50
2021/03/31 00:43:30;;;;;;;13.00;4.55;;;12.00;64.00;;;;;;5109904;28;20028;-50
2021/03/31 00:45:55;;;;;;;10.82;4.93;;;11.90;65.20;;;;;;5092284;28;20023;-53
2021/03/31 00:48:21;;;;;;;31.38;5.07;;;11.90;64.20;;;;;;5110492;28;20118;-52
2021/03/31 00:50:58;;;;;;;13.73;5.35;;;11.90;62.70;;;;;;5110777;28;20499;-50
2021/03/31 00:53:29;;;;;;;11.93;5.22;;;11.90;64.00;;;;;;5112178;28;20038;-51
2021/03/31 00:55:55;;;;;;;10.60;5.32;;;12.00;63.00;;;;;;5114516;28;20031;-49
2021/03/31 00:58:21;;;;;;;12.93;6.50;;;11.90;64.20;;;;;;5114322;28;20081;-50
2021/03/31 01:00:46;;;;;;;11.20;4.88;;;11.90;63.30;;;;;;5114405;28;20035;-47
2021/03/31 01:03:12;;;;;;;12.75;5.00;;;11.90;63.80;;;;;;5113590;28;20030;-48
2021/03/31 01:05:38;;;;;;;9.52;5.60;;;11.90;65.10;;;;;;5114184;28;20019;-52
2021/03/31 01:08:04;;;;;;;10.27;5.00;;;11.80;64.30;;;;;;5113970;28;20069;-54
2021/03/31 01:10:35;;;;;;;9.02;5.22;;;11.80;64.20;;;;;;5113977;28;20023;-52
2021/03/31 01:13:32;;;;;;;7.82;5.13;;;11.70;65.50;;;;;;5113421;28;20022;-49
2021/03/31 01:16:10;;;;;;;15.90;5.50;;;11.80;64.40;;;;;;5101817;28;20032;-51
2021/03/31 01:18:41;;;;;;;15.02;5.88;;;12.00;63.90;;;;;;5093562;28;20048;-52
2021/03/31 01:21:27;;;;;;;11.18;5.72;;;12.10;63.40;;;;;;5093689;28;20020;-49
2021/03/31 01:24:15;;;;;;;10.05;5.53;;;12.10;63.30;;;;;;5092874;28;20032;-48
2021/03/31 01:26:49;;;;;;;11.38;5.32;;;12.10;63.40;;;;;;5103302;28;20035;-50
2021/03/31 01:29:32;;;;;;;15.98;5.50;;;12.00;63.80;;;;;;5113990;28;20151;-51
2021/03/31 01:32:30;;;;;;;8.52;5.10;;;11.90;63.80;;;;;;5113536;28;20031;-50
2021/03/31 01:34:57;;;;;;;9.88;5.30;;;11.90;64.30;;;;;;5094048;28;20085;-49
2021/03/31 01:37:31;;;;;;;11.52;4.95;;;11.80;64.60;;;;;;5093147;28;20012;-52
2021/03/31 01:39:58;;;;;;;10.32;5.10;;;11.80;64.70;;;;;;5110923;28;20046;-51
2021/03/31 01:42:28;;;;;;;8.38;5.20;;;11.80;64.60;;;;;;5111876;28;20749;-51
2021/03/31 01:44:59;;;;;;;6.45;5.32;;;11.80;64.70;;;;;;5113246;28;20020;-51
2021/03/31 01:47:27;;;;;;;7.90;5.50;;;11.90;64.40;;;;;;5109047;28;20092;-55
2021/03/31 01:49:54;;;;;;;8.70;5.15;;;11.90;64.60;;;;;;5094069;28;20028;-50
2021/03/31 01:52:21;;;;;;;8.95;5.32;;;11.90;64.50;;;;;;5093501;28;20052;-46
2021/03/31 01:54:47;;;;;;;13.80;5.55;;;12.10;64.00;;;;;;5092513;28;20062;-55
2021/03/31 01:57:13;;;;;;;7.95;5.70;;;12.20;63.90;;;;;;5094279;28;20043;-47
2021/03/31 01:59:41;;;;;;;12.00;5.25;;;12.20;63.80;;;;;;5093099;28;20496;-56
2021/03/31 02:02:09;;;;;;;11.50;5.10;;;12.10;63.80;;;;;;5094181;28;20028;-57
2021/03/31 02:04:40;;;;;;;10.80;5.35;;;12.00;64.20;;;;;;5091158;28;20027;-55
2021/03/31 02:07:09;;;;;;;12.32;5.20;;;11.90;65.60;;;;;;5106878;28;20093;-46
2021/03/31 02:09:39;;;;;;;12.05;4.68;;;11.80;66.20;;;;;;5101017;28;20164;-45
2021/03/31 02:12:06;;;;;;;6.57;4.50;;;11.60;68.00;;;;;;5112915;28;20024;-49
2021/03/31 02:14:36;;;;;;;8.75;4.63;;;11.40;70.00;;;;;;5112481;28;20456;-46
2021/03/31 02:17:03;;;;;;;12.30;4.63;;;11.20;70.10;;;;;;5112978;28;20473;-47
2021/03/31 02:19:29;;;;;;;9.52;4.20;;;11.10;70.40;;;;;;5113052;28;20028;-48
2021/03/31 02:21:55;;;;;;;10.25;4.90;;;10.90;71.00;;;;;;5094876;28;20031;-51
2021/03/31 02:24:21;;;;;;;9.52;4.65;;;10.80;71.40;;;;;;5112316;28;20035;-46
2021/03/31 02:26:48;;;;;;;7.47;4.07;;;10.70;71.30;;;;;;5105662;28;20074;-50
2021/03/31 02:29:14;;;;;;;6.75;4.45;;;10.60;71.70;;;;;;5092445;28;20072;-49
2021/03/31 02:31:41;;;;;;;7.60;5.05;;;10.60;72.00;;;;;;5092358;28;20114;-54
2021/03/31 02:34:07;;;;;;;10.35;5.90;;;10.60;71.50;;;;;;5091328;28;20084;-50
2021/03/31 02:36:34;;;;;;;10.68;5.30;;;10.50;72.20;;;;;;5092096;28;20016;-51
2021/03/31 02:39:01;;;;;;;7.70;4.68;;;10.40;73.40;;;;;;5092122;28;20515;-52
2021/03/31 02:41:28;;;;;;;8.48;5.00;;;10.30;73.50;;;;;;5092006;28;20028;-50
2021/03/31 02:43:55;;;;;;;11.35;5.45;;;10.30;73.20;;;;;;5091924;28;20508;-53
2021/03/31 02:46:22;;;;;;;10.50;5.53;;;10.40;74.00;;;;;;5092001;28;20032;-45
2021/03/31 02:48:49;;;;;;;14.32;5.63;;;10.40;72.90;;;;;;5091913;28;20034;-51
2021/03/31 02:51:19;;;;;;;9.07;4.65;;;10.40;73.30;;;;;;5091804;28;20035;-47
2021/03/31 02:53:45;;;;;;;8.55;5.28;;;10.40;74.10;;;;;;5091372;28;20024;-52
2021/03/31 02:56:13;;;;;;;10.90;5.07;;;10.30;74.40;;;;;;5091706;28;20082;-47
2021/03/31 02:58:42;;;;;;;7.05;4.75;;;10.30;75.00;;;;;;5091577;28;20481;-48
2021/03/31 03:01:08;;;;;;;6.38;4.82;;;10.10;75.10;;;;;;5091609;28;20539;-49
2021/03/31 03:03:34;;;;;;;7.13;5.10;;;10.00;76.50;;;;;;5100038;28;20485;-47
2021/03/31 03:06:01;;;;;;;13.13;4.95;;;9.90;77.10;;;;;;5111892;28;20023;-52
2021/03/31 03:08:28;;;;;;;10.15;5.35;;;9.90;77.70;;;;;;5111705;28;20781;-50
2021/03/31 03:10:57;;;;;;;11.85;5.55;;;9.90;78.00;;;;;;5111777;28;20059;-45
2021/03/31 03:13:24;;;;;;;8.65;4.85;;;9.90;78.30;;;;;;5111026;28;20012;-49
2021/03/31 03:15:50;;;;;;;6.25;4.50;;;9.90;78.90;;;;;;5093569;28;20548;-50
2021/03/31 03:18:15;;;;;;;9.95;5.05;;;9.90;79.40;;;;;;5111615;28;20103;-50
2021/03/31 03:20:41;;;;;;;11.82;5.63;;;9.90;80.10;;;;;;5111466;28;20515;-49
2021/03/31 03:23:09;;;;;;;7.78;5.78;;;9.80;80.40;;;;;;5110803;28;20397;-49
2021/03/31 03:25:35;;;;;;;7.18;5.45;;;9.80;80.60;;;;;;5111389;28;20509;-48
2021/03/31 03:28:02;;;;;;;7.65;5.10;;;9.70;80.60;;;;;;5111323;28;20115;-52
2021/03/31 03:30:30;;;;;;;7.85;5.70;;;9.80;80.90;;;;;;5111149;28;20047;-44
2021/03/31 03:32:55;;;;;;;11.38;5.70;;;9.70;80.90;;;;;;5110852;28;20030;-50
2021/03/31 03:35:25;;;;;;;7.88;5.10;;;9.70;81.30;;;;;;5111001;28;20020;-52
2021/03/31 03:37:51;;;;;;;9.15;5.20;;;9.70;81.70;;;;;;5111337;28;20019;-48
2021/03/31 03:40:21;;;;;;;9.60;5.18;;;9.70;81.50;;;;;;5111072;28;20053;-46
2021/03/31 03:42:46;;;;;;;14.82;5.45;;;9.70;82.50;;;;;;5092972;28;20447;-50
2021/03/31 03:45:12;;;;;;;10.07;5.45;;;9.60;82.50;;;;;;5112228;28;20051;-50
2021/03/31 03:47:39;;;;;;;10.15;5.55;;;9.60;82.30;;;;;;5111065;28;20027;-52
2021/03/31 03:50:12;;;;;;;10.85;5.13;;;9.60;82.40;;;;;;5110974;28;20566;-49
2021/03/31 03:52:39;;;;;;;9.55;5.47;;;9.50;82.50;;;;;;5110317;28;20028;-52
2021/03/31 03:55:06;;;;;;;10.50;5.43;;;9.50;82.70;;;;;;5110934;28;20032;-49
2021/03/31 03:57:31;;;;;;;13.60;5.53;;;9.60;82.40;;;;;;5110861;28;20452;-51
2021/03/31 03:59:57;;;;;;;13.23;6.32;;;9.70;81.90;;;;;;5110857;28;20051;-52
2021/03/31 04:02:23;;;;;;;15.70;5.78;;;9.80;81.50;;;;;;5110727;28;20435;-52
2021/03/31 04:04:49;;;;;;;12.63;5.93;;;9.90;81.10;;;;;;5090340;28;20362;-55
2021/03/31 04:07:15;;;;;;;5.97;5.00;;;9.90;81.60;;;;;;5090447;28;20024;-50
2021/03/31 04:09:44;;;;;;;10.93;5.85;;;9.80;82.10;;;;;;5090224;28;20054;-54
2021/03/31 04:12:11;;;;;;;12.93;5.72;;;9.70;82.70;;;;;;5090429;28;20024;-50
2021/03/31 04:14:39;;;;;;;9.43;5.22;;;9.60;83.70;;;;;;5089723;28;20024;-49
2021/03/31 04:17:06;;;;;;;9.48;5.25;;;9.70;84.10;;;;;;5090306;28;20039;-52
2021/03/31 04:19:33;;;;;;;8.90;5.85;;;9.70;84.10;;;;;;5090352;28;20028;-51
2021/03/31 04:21:59;;;;;;;10.55;5.38;;;9.60;84.30;;;;;;5090215;28;20130;-53
2021/03/31 04:24:25;;;;;;;9.95;5.88;;;9.60;84.90;;;;;;5089584;28;20103;-47
2021/03/31 04:26:52;;;;;;;9.23;5.50;;;9.50;84.10;;;;;;5090403;28;20027;-51
2021/03/31 04:29:19;;;;;;;8.65;5.50;;;9.50;83.30;;;;;;5094533;28;20488;-51
2021/03/31 04:31:44;;;;;;;15.88;5.47;;;9.50;92.30;;;;;;5094332;28;20046;-52
2021/03/31 04:34:10;;;;;;;9.48;5.03;;;9.50;92.40;;;;;;5093884;28;20020;-52
2021/03/31 04:36:36;;;;;;;9.00;5.50;;;9.40;92.20;;;;;;5076406;28;20024;-49
2021/03/31 04:39:03;;;;;;;9.38;5.25;;;9.40;94.30;;;;;;5094404;28;20519;-48
2021/03/31 04:41:29;;;;;;;7.53;4.97;;;9.30;89.60;;;;;;5094269;28;20020;-53
2021/03/31 04:43:55;;;;;;;11.77;5.55;;;9.20;89.60;;;;;;5093503;28;20111;-52
2021/03/31 04:46:20;;;;;;;8.35;5.90;;;9.10;90.10;;;;;;5094074;28;20058;-48
2021/03/31 04:48:45;;;;;;;9.68;5.43;;;9.10;91.90;;;;;;5094110;28;20024;-50
2021/03/31 04:51:11;;;;;;;9.93;5.00;;;8.80;90.20;;;;;;5093995;28;20043;-50
2021/03/31 04:53:36;;;;;;;9.57;4.97;;;8.80;88.90;;;;;;5093322;28;20381;-50
2021/03/31 04:56:03;;;;;;;8.63;5.38;;;8.90;88.70;;;;;;5093975;28;20366;-48
2021/03/31 04:58:28;;;;;;;10.75;5.95;;;8.90;88.50;;;;;;5093894;28;20024;-51
2021/03/31 05:00:54;;;;;;;14.27;5.60;;;9.00;88.30;;;;;;5093980;28;20099;-50
2021/03/31 05:03:20;;;;;;;10.90;5.80;;;9.10;87.70;;;;;;5100606;28;20020;-53
2021/03/31 05:05:45;;;;;;;8.48;5.60;;;9.30;86.90;;;;;;5118369;27;20099;-47
2021/03/31 05:08:11;;;;;;;21.65;5.95;;;9.50;86.30;;;;;;5130748;27;20080;-49
2021/03/31 05:10:36;;;;;;;8.05;5.97;;;9.60;85.90;;;;;;5113372;27;20397;-52
2021/03/31 05:13:03;;;;;;;13.68;6.22;;;9.60;85.60;;;;;;5094458;28;20062;-52
2021/03/31 05:15:28;;;;;;;12.52;5.32;;;9.70;85.30;;;;;;5109342;28;20103;-48
2021/03/31 05:17:54;;;;;;;10.90;5.53;;;9.60;85.40;;;;;;5112862;28;20509;-50
2021/03/31 05:20:20;;;;;;;13.63;6.05;;;9.50;86.20;;;;;;5111841;28;20028;-52
2021/03/31 05:22:46;;;;;;;20.45;6.22;;;9.50;86.40;;;;;;5095294;28;20507;-48
2021/03/31 05:25:12;;;;;;;7.30;5.03;;;9.40;87.10;;;;;;5103533;28;20184;-46
2021/03/31 05:27:37;;;;;;;7.70;5.35;;;9.30;87.50;;;;;;5093321;28;20026;-50
2021/03/31 05:32:44;;;;;;;18.30;5.72;;;9.20;89.80;;;;;;5089807;28;20452;-49
2021/03/31 05:35:10;;;;;;;8.07;5.68;;;9.10;90.60;;;;;;5076320;28;20021;-44
2021/03/31 05:37:36;;;;;;;7.53;5.43;;;9.00;90.90;;;;;;5085907;28;20314;-45
2021/03/31 05:40:03;;;;;;;12.75;6.30;;;9.00;90.50;;;;;;5074487;28;20021;-44
2021/03/31 05:42:29;;;;;;;13.43;5.53;;;9.00;90.40;;;;;;5056568;28;20033;-43
2021/03/31 05:44:55;;;;;;;9.73;5.53;;;8.90;90.50;;;;;;5093845;28;20046;-47
2021/03/31 05:47:28;;;;;;;9.68;5.07;;;9.00;90.80;;;;;;5080319;28;20465;-48
2021/03/31 05:49:54;;;;;;;12.35;5.80;;;9.10;90.70;;;;;;5061462;28;20397;-48
2021/03/31 05:52:21;;;;;;;14.00;5.55;;;9.20;90.80;;;;;;5094275;28;20060;-46
2021/03/31 05:54:46;;;;;;;11.20;6.10;;;9.30;90.20;;;;;;5089876;28;20046;-59
2021/03/31 05:57:12;;;;;;;11.23;5.47;;;9.50;89.50;;;;;;5074480;28;20032;-48
2021/03/31 05:59:39;;;;;;;9.32;5.45;;;9.70;89.10;;;;;;5080909;28;20103;-50
2021/03/31 06:02:12;;;;;;;13.80;6.78;;;10.00;88.20;;;;;;5093583;28;20028;-45
2021/03/31 06:04:40;;;;;;;7.10;6.35;;;10.30;86.50;;;;;;5070698;28;20035;-46
2021/03/31 06:07:05;;;;;;;12.10;7.03;;;10.50;84.70;;;;;;5092846;28;20032;-52
2021/03/31 06:09:31;;;;;;;11.05;5.70;;;10.70;84.40;;;;;;5077269;28;20033;-44
2021/03/31 06:12:00;;;;;;;12.77;6.10;;;10.90;83.60;;;;;;5083350;28;20028;-44
2021/03/31 06:14:32;;;;;;;14.77;6.22;;;11.10;82.80;;;;;;5073261;28;20047;-47
2021/03/31 06:17:12;;;;;;;11.65;6.10;;;11.40;82.80;;;;;;5074634;28;20024;-52
2021/03/31 06:19:40;;;;;;;10.13;5.78;;;11.70;80.30;;;;;;5079755;28;20060;-50
2021/03/31 06:24:46;;;;;;;10.38;6.35;;;12.60;77.30;;;;;;5091084;28;20086;-45
2021/03/31 06:27:14;;;;;;;14.68;6.10;;;12.70;75.80;;;;;;5083940;28;20115;-44
2021/03/31 06:29:44;;;;;;;11.73;5.50;;;13.00;74.80;;;;;;5060275;28;20055;-51
2021/03/31 06:32:17;;;;;;;7.55;5.82;;;13.20;74.50;;;;;;5094255;28;20040;-50
2021/03/31 06:34:56;;;;;;;10.45;6.15;;;13.70;73.40;;;;;;5084937;28;20020;-46
2021/03/31 06:37:28;;;;;;;11.93;6.13;;;13.90;72.10;;;;;;5081837;28;20052;-46
2021/03/31 06:39:54;;;;;;;11.05;6.43;;;13.90;71.50;;;;;;5081724;28;20020;-46
2021/03/31 06:42:25;;;;;;;7.80;5.95;;;14.10;70.30;;;;;;5093028;28;20020;-52
2021/03/31 06:49:52;;;;;;;15.63;6.00;;;14.80;69.30;;;;;;5086070;28;20089;-50
2021/03/31 06:52:18;;;;;;;12.38;5.40;;;15.00;68.40;;;;;;5073568;28;20020;-50
2021/03/31 06:54:57;;;;;;;15.60;6.25;;;15.30;67.00;;;;;;5085436;28;20020;-49
2021/03/31 06:57:32;;;;;;;13.73;6.68;;;15.60;65.70;;;;;;5071926;28;20019;-46
2021/03/31 07:00:09;;;;;;;10.70;5.85;;;15.90;64.90;;;;;;5067250;28;20028;-45
2021/03/31 07:02:37;;;;;;;9.15;6.45;;;16.20;64.50;;;;;;5091472;28;20389;-53
2021/03/31 07:05:04;;;;;;;11.35;6.13;;;16.60;63.30;;;;;;5089432;28;20016;-51
2021/03/31 07:07:38;;;;;;;13.25;5.70;;;17.00;62.90;;;;;;5089780;28;20020;-48
2021/03/31 07:10:10;;;;;;;11.50;6.30;;;17.40;62.10;;;;;;5077274;28;20032;-57
2021/03/31 07:12:44;;;;;;;11.43;6.78;;;17.70;60.70;;;;;;5075674;28;20021;-57
2021/03/31 07:15:13;;;;;;;10.43;5.88;;;17.90;60.20;;;;;;5084035;28;20099;-57
2021/03/31 07:17:42;;;;;;;15.82;6.53;;;18.40;58.50;;;;;;5078867;28;20112;-48
2021/03/31 07:20:09;;;;;;;14.32;6.43;;;18.50;58.60;;;;;;5075776;28;20103;-46
2021/03/31 07:22:35;;;;;;;11.57;5.78;;;18.70;58.30;;;;;;5071261;28;20024;-45
2021/03/31 07:25:01;;;;;;;10.30;6.00;;;19.10;57.30;;;;;;5073580;28;20143;-46
2021/03/31 07:27:28;;;;;;;12.13;6.70;;;19.40;56.20;;;;;;5091419;28;20048;-48
2021/03/31 07:30:10;;;;;;;13.23;5.97;;;19.80;56.20;;;;;;5090455;28;20084;-47
2021/03/31 07:32:48;;;;;;;11.07;6.10;;;20.10;54.60;;;;;;5070216;28;20063;-48
2021/03/31 07:35:14;;;;;;;15.07;5.65;;;20.60;53.90;;;;;;5074276;28;20024;-44
2021/03/31 07:37:40;;;;;;;10.52;6.45;;;20.90;52.60;;;;;;5091378;28;20020;-47
2021/03/31 07:40:10;;;;;;;14.48;7.25;;;21.20;51.60;;;;;;5089919;28;20512;-48
2021/03/31 07:42:40;;;;;;;11.70;6.53;;;21.80;50.40;;;;;;5090784;28;20165;-45
2021/03/31 07:45:09;;;;;;;12.02;6.18;;;22.20;50.00;;;;;;5083580;28;20055;-44
2021/03/31 07:47:35;;;;;;;14.63;6.18;;;22.50;50.00;;;;;;5053441;28;20069;-47
2021/03/31 07:50:02;;;;;;;11.10;6.60;;;22.50;49.20;;;;;;5072371;28;20028;-46
2021/03/31 07:52:51;;;;;;;13.82;7.13;;;22.80;48.80;;;;;;5070698;28;20024;-48
2021/03/31 07:55:32;;;;;;;13.32;6.18;;;23.20;47.50;;;;;;5052753;28;20032;-52
2021/03/31 07:58:13;;;;;;;17.88;7.75;;;23.70;46.00;;;;;;5071056;28;20028;-48
2021/03/31 08:00:44;;;;;;;13.23;6.38;;;24.30;44.70;;;;;;5088857;28;20032;-57
2021/03/31 08:03:17;;;;;;;13.73;6.45;;;24.40;44.70;;;;;;5077783;28;20049;-57
2021/03/31 08:06:07;;;;;;;11.55;6.22;;;24.80;44.50;;;;;;5090773;28;20203;-47
2021/03/31 08:08:35;;;;;;;12.98;6.18;;;25.00;44.30;;;;;;5090571;28;20111;-53
2021/03/31 08:11:01;;;;;;;11.68;6.28;;;25.50;43.50;;;;;;5089541;28;20422;-49
2021/03/31 08:13:38;;;;;;;17.02;6.55;;;25.80;42.90;;;;;;5070005;28;20021;-51
2021/03/31 08:16:27;;;;;;;11.35;6.60;;;25.80;42.30;;;;;;5072191;28;20382;-55
2021/03/31 08:18:55;;;;;;;17.35;7.03;;;26.00;41.90;;;;;;5053833;28;20081;-54
2021/03/31 08:21:25;;;;;;;11.25;6.35;;;25.60;41.90;;;;;;5086397;28;20036;-53
2021/03/31 08:23:58;;;;;;;11.30;6.05;;;25.60;41.90;;;;;;5086648;28;20063;-63
2021/03/31 08:26:35;;;;;;;10.00;6.03;;;25.70;41.70;;;;;;5085849;28;20024;-51
2021/03/31 08:29:19;;;;;;;11.02;6.47;;;25.40;42.10;;;;;;5085645;28;20039;-50
2021/03/31 08:31:56;;;;;;;8.32;6.25;;;25.00;42.80;;;;;;5069817;28;20028;-54
2021/03/31 08:34:27;;;;;;;18.02;6.70;;;24.40;43.00;;;;;;5086322;28;20103;-52
2021/03/31 08:36:53;;;;;;;13.43;7.00;;;23.30;44.10;;;;;;5072402;28;20493;-56
2021/03/31 08:39:19;;;;;;;10.05;7.28;;;22.10;46.10;;;;;;5072885;28;20033;-49
2021/03/31 08:41:47;;;;;;;13.90;7.32;;;21.20;48.60;;;;;;5071841;28;20036;-46
2021/03/31 08:44:41;;;;;;;11.52;8.18;;;20.70;50.00;;;;;;5053887;28;20497;-49
2021/03/31 08:47:13;;;;;;;9.98;7.70;;;20.30;50.80;;;;;;5085017;28;20525;-56
2021/03/31 08:49:39;;;;;;;13.05;7.50;;;20.60;51.60;;;;;;5070751;28;20393;-48
2021/03/31 08:52:07;;;;;;;14.65;7.47;;;21.70;50.10;;;;;;5057824;28;20024;-51
2021/03/31 08:54:43;;;;;;;13.55;8.48;;;23.00;48.20;;;;;;5090731;28;20027;-54
2021/03/31 08:57:14;;;;;;;14.23;7.30;;;24.20;46.20;;;;;;5091134;28;20028;-50
2021/03/31 08:59:44;;;;;;;13.38;6.93;;;25.40;44.50;;;;;;5090733;28;20030;-54
2021/03/31 09:02:11;;;;;;;17.90;7.18;;;26.20;43.20;;;;;;5088947;28;20020;-49
2021/03/31 09:04:36;;;;;;;15.45;8.10;;;27.10;42.50;;;;;;5090360;28;20025;-58
2021/03/31 09:07:05;;;;;;;12.88;7.78;;;27.20;41.50;;;;;;5087590;28;20141;-54
2021/03/31 09:09:33;;;;;;;13.95;7.53;;;27.90;41.30;;;;;;5087163;28;20065;-52
2021/03/31 09:12:01;;;;;;;13.57;8.30;;;28.30;40.00;;;;;;5072752;28;20020;-53
2021/03/31 09:14:27;;;;;;;18.17;10.25;;;28.60;39.50;;;;;;5091546;28;20020;-54
2021/03/31 09:16:53;;;;;;;18.67;12.57;;;28.70;37.90;;;;;;5073734;28;20020;-55
2021/03/31 09:19:20;;;;;;;18.75;11.82;;;28.90;35.80;;;;;;5073738;28;20082;-51
2021/03/31 09:21:46;;;;;;;15.20;11.65;;;28.80;36.20;;;;;;5074316;28;20405;-53
2021/03/31 09:24:15;;;;;;;15.38;10.95;;;28.70;36.80;;;;;;5077892;28;20493;-52
2021/03/31 09:26:42;;;;;;;19.25;10.73;;;28.90;36.10;;;;;;5093757;28;20024;-58
2021/03/31 09:29:15;;;;;;;19.02;11.70;;;28.20;36.60;;;;;;5075984;28;20481;-55
2021/03/31 09:31:42;;;;;;;17.48;11.52;;;27.80;37.40;;;;;;5094081;28;20036;-58
2021/03/31 09:34:09;;;;;;;17.25;11.63;;;27.10;37.90;;;;;;5093760;28;20016;-55
2021/03/31 09:36:34;;;;;;;17.45;11.48;;;26.40;38.50;;;;;;5093709;28;20074;-54
2021/03/31 09:39:00;;;;;;;17.17;12.45;;;25.60;39.90;;;;;;5075387;28;20020;-51
2021/03/31 09:41:27;;;;;;;21.77;13.10;;;25.20;41.90;;;;;;5075251;28;20092;-53
2021/03/31 09:43:53;;;;;;;18.30;12.45;;;24.90;41.20;;;;;;5093308;28;20024;-53
2021/03/31 09:46:23;;;;;;;16.95;13.27;;;24.70;42.00;;;;;;5093375;28;20101;-49
2021/03/31 09:48:50;;;;;;;23.30;12.27;;;24.60;42.10;;;;;;5093787;28;20024;-51
2021/03/31 09:51:16;;;;;;;19.25;11.73;;;24.40;42.00;;;;;;5075516;28;20020;-46
2021/03/31 09:53:43;;;;;;;22.80;12.30;;;24.40;43.20;;;;;;5093646;28;20027;-50
2021/03/31 09:56:13;;;;;;;16.65;12.13;;;24.60;43.00;;;;;;5094489;28;20039;-49
2021/03/31 09:58:44;;;;;;;20.40;13.02;;;24.80;41.90;;;;;;5093995;28;20020;-45
2021/03/31 10:01:14;;;;;;;20.67;13.85;;;24.80;42.50;;;;;;5093286;28;20028;-46
2021/03/31 10:03:42;;;;;;;19.52;12.20;;;24.60;42.00;;;;;;5093192;28;20067;-48
2021/03/31 10:06:34;;;;;;;23.65;12.85;;;24.20;42.10;;;;;;5093980;28;20047;-48
2021/03/31 10:08:59;;;;;;;25.10;11.63;;;23.80;43.90;;;;;;5089511;28;20070;-50
2021/03/31 10:11:35;;;;;;;19.60;12.63;;;23.60;44.50;;;;;;5093881;28;20065;-47
2021/03/31 10:14:03;;;;;;;21.92;13.45;;;23.50;45.10;;;;;;5093577;28;20020;-42
2021/03/31 10:16:34;;;;;;;18.70;12.85;;;23.30;44.20;;;;;;5093250;28;20032;-46
2021/03/31 10:19:01;;;;;;;28.38;13.25;;;23.30;44.10;;;;;;5093496;28;20401;-45
2021/03/31 10:21:32;;;;;;;19.33;13.02;;;23.30;43.90;;;;;;5092932;28;20031;-43
2021/03/31 10:23:58;;;;;;;18.40;13.45;;;23.20;44.00;;;;;;5074866;28;20070;-49
2021/03/31 10:26:32;;;;;;;22.45;13.60;;;23.10;43.60;;;;;;5092129;28;20487;-44
2021/03/31 10:29:04;;;;;;;26.73;14.73;;;22.80;44.50;;;;;;5075061;28;20081;-48
2021/03/31 10:31:34;;;;;;;28.05;14.35;;;22.50;44.90;;;;;;5093777;28;20032;-45
2021/03/31 10:34:00;;;;;;;22.60;13.75;;;22.40;45.80;;;;;;5093188;28;20447;-45
2021/03/31 10:36:42;;;;;;;23.55;13.68;;;22.50;46.00;;;;;;5093131;28;20027;-44
2021/03/31 10:50:16;;;;;;;27.20;13.35;;;22.40;45.80;;;;;;5061489;28;20417;-43
2021/03/31 10:52:46;;;;;;;23.58;14.52;;;22.30;47.00;;;;;;5093108;28;20024;-47
2021/03/31 10:55:12;;;;;;;23.80;14.27;;;22.40;47.40;;;;;;5092959;28;20027;-47
2021/03/31 10:57:38;;;;;;;25.30;14.73;;;22.40;47.50;;;;;;5074568;28;20024;-47
2021/03/31 11:00:04;;;;;;;29.65;14.95;;;22.30;45.10;;;;;;5092360;28;20051;-41
2021/03/31 11:02:30;;;;;;;24.90;14.90;;;22.10;45.50;;;;;;5092695;28;20031;-46
2021/03/31 11:04:55;;;;;;;26.95;14.82;;;22.00;46.80;;;;;;5074708;28;20024;-42
2021/03/31 11:07:21;;;;;;;32.63;14.15;;;21.80;47.20;;;;;;5093417;28;20036;-46
2021/03/31 11:09:49;;;;;;;25.65;17.00;;;21.80;47.80;;;;;;5092718;28;20420;-46
2021/03/31 11:12:14;;;;;;;32.65;17.23;;;21.60;48.10;;;;;;5092593;28;20644;-44
2021/03/31 11:14:40;;;;;;;31.42;17.27;;;21.60;48.00;;;;;;5092915;28;20020;-41
2021/03/31 11:17:07;;;;;;;28.25;15.85;;;21.60;48.10;;;;;;5092463;28;20012;-44
2021/03/31 11:27:47;;;;;;;28.95;16.35;;;21.50;48.30;;;;;;5029112;28;20100;-46
2021/03/31 11:30:14;;;;;;;28.33;16.15;;;21.40;48.50;;;;;;5029042;28;20503;-45
2021/03/31 11:32:39;;;;;;;32.75;15.95;;;21.40;48.50;;;;;;5057777;28;20127;-44
2021/03/31 11:35:06;;;;;;;28.77;16.52;;;21.40;48.00;;;;;;5091894;28;20102;-46
2021/03/31 11:37:31;;;;;;;30.13;16.35;;;21.40;47.40;;;;;;5091549;28;20020;-45
2021/03/31 11:39:57;;;;;;;30.52;17.17;;;21.40;48.60;;;;;;5092163;28;20031;-48
2021/03/31 11:42:23;;;;;;;29.58;16.45;;;21.40;48.80;;;;;;5091720;28;20081;-40
2021/03/31 11:44:48;;;;;;;32.08;18.08;;;21.30;48.40;;;;;;5091638;28;20043;-43
2021/03/31 11:47:14;;;;;;;27.88;16.73;;;21.40;49.60;;;;;;5091606;28;20024;-44
2021/03/31 11:49:40;;;;;;;27.52;18.73;;;21.40;50.20;;;;;;5092092;28;20016;-46
2021/03/31 11:52:06;;;;;;;34.75;17.40;;;21.50;50.00;;;;;;5091254;28;20095;-43
2021/03/31 11:54:31;;;;;;;32.85;16.60;;;21.50;48.90;;;;;;5090924;28;20069;-45
2021/03/31 11:56:57;;;;;;;32.17;17.40;;;21.40;49.00;;;;;;5091254;28;20028;-48
2021/03/31 11:59:23;;;;;;;33.67;16.60;;;21.40;48.40;;;;;;5091188;28;20420;-42
2021/03/31 12:01:48;;;;;;;28.05;15.80;;;21.50;49.50;;;;;;5080850;22;20045;-42
2021/03/31 12:04:15;;;;;;;28.42;16.65;;;21.50;49.10;;;;;;5049449;28;20017;-46
2021/03/31 12:06:41;;;;;;;31.00;17.05;;;21.50;47.30;;;;;;5050330;28;20024;-43
2021/03/31 12:09:08;;;;;;;30.23;17.65;;;21.50;47.50;;;;;;5050111;28;20531;-45
2021/03/31 12:11:34;;;;;;;27.90;14.98;;;21.50;47.80;;;;;;5050651;28;20058;-44
2021/03/31 12:13:59;;;;;;;25.67;15.45;;;21.60;49.10;;;;;;5032276;28;20104;-45
2021/03/31 12:16:25;;;;;;;30.25;16.52;;;21.60;47.90;;;;;;5032706;28;20116;-44
2021/03/31 12:18:50;;;;;;;29.30;15.70;;;21.50;46.90;;;;;;5060886;28;20558;-49
2021/03/31 12:21:16;;;;;;;28.80;15.90;;;21.50;48.20;;;;;;5066583;28;20040;-54
2021/03/31 12:23:42;;;;;;;27.02;16.55;;;21.60;47.40;;;;;;5033928;28;20398;-52
2021/03/31 12:26:07;;;;;;;29.20;17.15;;;21.70;46.40;;;;;;5066778;28;20552;-46
2021/03/31 12:28:35;;;;;;;39.50;17.00;;;21.80;46.70;;;;;;5068752;28;20104;-46
2021/03/31 12:31:07;;;;;;;30.48;15.23;;;21.80;45.90;;;;;;5070637;28;20108;-47
2021/03/31 12:33:33;;;;;;;32.80;17.80;;;21.80;45.90;;;;;;5050417;28;20039;-50
2021/03/31 12:35:59;;;;;;;28.75;16.90;;;21.80;45.80;;;;;;5070610;28;20032;-46
2021/03/31 12:38:24;;;;;;;31.23;17.45;;;21.80;46.00;;;;;;5064823;28;20063;-53
2021/03/31 12:40:50;;;;;;;25.70;16.15;;;21.90;45.40;;;;;;5051010;28;20115;-47
2021/03/31 12:43:15;;;;;;;32.58;14.88;;;21.90;45.20;;;;;;5065704;28;20490;-49
2021/03/31 12:45:41;;;;;;;31.70;14.65;;;22.00;45.80;;;;;;5070877;28;20452;-43
2021/03/31 12:48:07;;;;;;;26.70;15.18;;;22.00;44.30;;;;;;5056034;28;20044;-54
2021/03/31 12:50:33;;;;;;;31.40;14.98;;;22.20;45.80;;;;;;5054094;28;20040;-56
2021/03/31 12:53:03;;;;;;;28.02;15.20;;;22.20;44.60;;;;;;5066461;28;20504;-51
2021/03/31 12:55:33;;;;;;;26.55;13.57;;;22.20;45.40;;;;;;5078127;28;20107;-53
2021/03/31 12:58:03;;;;;;;25.92;14.77;;;22.30;46.60;;;;;;5065615;28;20112;-47
2021/03/31 13:00:29;;;;;;;29.13;15.68;;;22.40;44.90;;;;;;5068111;28;20032;-51
2021/03/31 13:02:54;;;;;;;29.02;16.13;;;22.50;45.30;;;;;;5076654;28;20061;-47
2021/03/31 13:05:20;;;;;;;30.83;15.70;;;22.50;44.90;;;;;;5075720;28;20090;-44
2021/03/31 13:07:45;;;;;;;29.17;15.52;;;22.50;45.80;;;;;;5073966;28;20423;-49
2021/03/31 13:10:11;;;;;;;28.35;14.48;;;22.60;45.90;;;;;;5066507;28;20025;-53
2021/03/31 13:13:03;;;;;;;29.90;15.15;;;22.60;45.50;;;;;;5053078;28;20036;-53
2021/03/31 13:15:28;;;;;;;38.67;16.38;;;22.50;46.40;;;;;;5033091;28;20116;-45